This is the latest recevied weather packets stored in our database for station/object KB1JDX. If no packets are shown the sender has not sent any weather packets the latest 10 day(s).
| Time | Temp. | Humidity | Pressure | Rain* | Wind** | Luminosity | Snow |
|---|---|---|---|---|---|---|---|
| 1787708293 | 18.89° C | 100% | 1015.2 hPa | 0 mm | 0 m/s | - | - |
| 1787707093 | 18.89° C | 100% | 1015.1 hPa | 0 mm | 0 m/s | - | - |
| 1787707026 | 18.89° C | 100% | 1015.1 hPa | 0 mm | 0 m/s | - | - |
| 1787704693 | 20° C | 100% | 1014.7 hPa | 0 mm | 0 m/s | - | - |
| 1787703494 | 20.56° C | 100% | 1014.4 hPa | 0 mm | 0 m/s | - | - |
| 1787703426 | 20.56° C | 100% | 1014.4 hPa | 0 mm | 0 m/s | - | - |
| 1787702294 | 21.11° C | 4% | 1014.2 hPa | 0 mm | 0 m/s | - | - |
| 1787701094 | 21.67° C | 27% | 1013.9 hPa | 0 mm | 0 m/s | - | - |
| 1787699894 | 22.78° C | 38% | 1013.7 hPa | 0 mm | 0 m/s | - | - |
| 1787699826 | 22.78° C | 41% | 1013.6 hPa | 0 mm | 0 m/s | - | - |
| 1787698695 | 23.33° C | 48% | 1013.5 hPa | 0 mm | 0 m/s | - | - |
| 1787697494 | 23.89° C | 51% | 1013.4 hPa | 0 mm | 0 m/s | - | - |
| 1787696294 | 24.44° C | 53% | 1013.4 hPa | 0 mm | 0 m/s | - | - |
| 1787696226 | 24.44° C | 53% | 1013.4 hPa | 0 mm | 0 m/s | - | - |
| 1787695094 | 25° C | 53% | 1013.3 hPa | 0 mm | 0 m/s | - | - |
| 1787693895 | 25.56° C | 53% | 1013.2 hPa | 0 mm | 0 m/s | - | - |
| 1787692694 | 26.11° C | 51% | 1013.1 hPa | 0 mm | 0 m/s | - | - |
| 1787692626 | 26.11° C | 51% | 1013.1 hPa | 0 mm | 0 m/s | - | - |
| 1787691496 | 26.67° C | 51% | 1013 hPa | 0 mm | 0 m/s | - | - |
| 1787690296 | 26.11° C | 52% | 1012.9 hPa | 0 mm | 0 m/s | - | - |
| 1787689094 | 26.11° C | 51% | 1013.2 hPa | 0 mm | 0 m/s | - | - |
| 1787689026 | 26.11° C | 50% | 1013.1 hPa | 0 mm | 0 m/s | - | - |
| 1787687893 | 26.67° C | 49% | 1013.2 hPa | 0 mm | 0 m/s | - | - |
| 1787686693 | 25.56° C | 50% | 1013.4 hPa | 0 mm | 0 m/s | - | - |
| 1787685493 | 25.56° C | 51% | 1013.3 hPa | 0 mm | 0 m/s | - | - |
* Rain latest hour (hover to see other rain measurements)
** Current wind speed in m/s (hover to see current wind gust speed)